Monday, October 16, 2017, 5:49 PM EDT
Back to Local

KPVC, Provincetown, Provincetown Municipal Airport

Location: Provincetown, MA, United States Lat: 42.067
Local Time: 5:49 PM EDT (21:49 GMT) Lon: -70.217
Time Zone: US/Eastern Elev: 6 ft

Show me the last for .
Show Decoded

2017-10-16 16:56 METAR KPVC 162056Z AUTO 34010KT 10SM SCT032 BKN050 12/06 A2998 RMK AO2 SLP150
                 T01220061 53013 =
2017-10-16 15:56 METAR KPVC 161956Z AUTO 35010KT 10SM SCT030 13/07 A2994 RMK AO2 SLP139 T01280067
                 =
2017-10-16 14:56 METAR KPVC 161856Z AUTO 35013KT 10SM BKN040 13/07 A2993 RMK AO2 SLP134 T01330067
                 =
2017-10-16 13:56 METAR KPVC 161756Z AUTO 34013KT 10SM OVC036 13/07 A2994 RMK AO2 SLP137 60000
                 T01330067 10172 20128 53008 =
2017-10-16 12:56 METAR KPVC 161656Z AUTO 33017G24KT 10SM OVC034 14/08 A2993 RMK AO2 SLP134
                 T01390083 =
2017-10-16 11:56 METAR KPVC 161556Z AUTO 34011KT 10SM SCT036 16/09 A2991 RMK AO2 SLP129 T01560094
                 =
2017-10-16 11:20 METAR KPVC 161520Z AUTO 34013KT 10SM OVC032 16/11 A2992 RMK AO2 =
2017-10-16 10:56 METAR KPVC 161456Z AUTO 34011KT 10SM BKN028 16/10 A2991 RMK AO2 SLP129 60000
                 T01560100 51030 =
2017-10-16 09:56 METAR KPVC 161356Z AUTO 29013G18KT 10SM FEW060 17/11 A2989 RMK AO2 SLP122
                 T01670111 =
2017-10-16 08:56 METAR KPVC 161256Z AUTO 29011KT 10SM BKN060 OVC120 17/12 A2985 RMK AO2 RAE00
                 SLP108 P0000 T01670122 =
2017-10-16 07:56 METAR KPVC 161156Z AUTO 27008KT 10SM -RA FEW026 SCT085 OVC100 17/14 A2982 RMK
                 AO2 RAB42 SLP098 P0000 60000 70001 T01670144 10178 20167 53024 =
2017-10-16 06:56 METAR KPVC 161056Z AUTO 27007KT 10SM FEW030 SCT075 OVC090 17/14 A2979 RMK AO2
                 SLP086 T01670144 =
2017-10-16 06:22 METAR KPVC 161022Z AUTO 26009KT 10SM BKN030 BKN075 OVC090 17/15 A2979 RMK AO2 =
2017-10-16 05:56 METAR KPVC 160956Z AUTO 25007KT 10SM OVC028 17/16 A2978 RMK AO2 SLP085 T01720161
                 =
2017-10-16 05:27 METAR KPVC 160927Z AUTO 25007KT 8SM FEW009 OVC026 17/17 A2977 RMK AO2 =
2017-10-16 04:56 METAR KPVC 160856Z AUTO 24010KT 6SM BR SCT002 BKN012 OVC017 18/17 A2975 RMK AO2
                 SLP075 T01780172 53004 =
2017-10-16 04:44 METAR KPVC 160844Z AUTO 22013KT 7SM FEW004 BKN014 OVC024 18/17 A2975 RMK AO2 =
2017-10-16 04:08 METAR KPVC 160808Z AUTO 22014KT 9SM BKN029 18/17 A2974 RMK AO2 =
2017-10-16 03:56 METAR KPVC 160756Z AUTO 21013G21KT 8SM BKN031 18/17 A2973 RMK AO2 SLP067
                 T01780172 =
2017-10-16 03:15 METAR KPVC 160715Z AUTO 21013KT 9SM FEW020 BKN070 BKN110 18/17 A2974 RMK AO2 =
2017-10-16 02:56 METAR KPVC 160656Z AUTO 22013KT 10SM BKN020 OVC070 18/17 A2975 RMK AO2 PK WND
                 22027/0604 SLP073 T01780167 =
2017-10-16 01:56 METAR KPVC 160556Z AUTO 22019G25KT 9SM OVC015 18/17 A2974 RMK AO2 PK WND
                 22026/0505 SLP071 60001 T01780167 10183 20178 56008 =
2017-10-16 00:56 METAR KPVC 160456Z AUTO 22021G26KT 9SM OVC015 18/17 A2975 RMK AO2 PK WND
                 21029/0446 SLP075 T01830167 402000156 =
2017-10-16 00:27 METAR KPVC 160427Z AUTO 22021G27KT 10SM OVC015 18/17 A2975 RMK AO2 PK WND
                 21029/0404 =
2017-10-15 23:56 METAR KPVC 160356Z AUTO 21018G27KT 10SM OVC013 18/17 A2975 RMK AO2 PK WND
                 22030/0311 SLP075 T01830167 =
2017-10-15 23:30 METAR KPVC 160330Z AUTO 22020KT 9SM OVC011 18/17 A2977 RMK AO2 PK WND 22030/0311
                 =
2017-10-15 22:56 METAR KPVC 160256Z AUTO 22025G31KT 10SM OVC009 18/17 A2977 RMK AO2 PK WND
                 22033/0246 SLP079 60001 T01830167 55007 =
2017-10-15 21:56 METAR KPVC 160156Z AUTO 22024G31KT 10SM OVC011 18/17 A2976 RMK AO2 PK WND
                 22033/0118 SLP077 T01830167 =
2017-10-15 21:34 METAR KPVC 160134Z AUTO 22025G30KT 10SM OVC011 18/17 A2976 RMK AO2 PK WND
                 22033/0118 =
2017-10-15 20:56 METAR KPVC 160056Z AUTO 22024G29KT 10SM OVC009 18/17 A2977 RMK AO2 PK WND
                 22032/0043 SLP081 P0001 T01830167 =
2017-10-15 20:17 METAR KPVC 160017Z AUTO 22023G30KT 10SM BKN009 OVC014 18/17 A2978 RMK AO2 PK WND
                 23030/0013 CIG 007V011 =
2017-10-15 19:56 METAR KPVC 152356Z AUTO 22020G26KT 10SM FEW007 OVC014 18/17 A2979 RMK AO2 PK WND
                 22027/2335 SLP086 T01780167 10200 20178 56020 =
2017-10-15 19:44 METAR KPVC 152344Z AUTO 21019G27KT 10SM SCT007 OVC012 18/17 A2979 RMK AO2 PK WND
                 22027/2335 =
2017-10-15 18:56 METAR KPVC 152256Z AUTO 21016G21KT 10SM OVC005 18/17 A2980 RMK AO2 SLP090
                 T01830172 =
2017-10-15 18:19 METAR KPVC 152219Z AUTO 22014G20KT 10SM OVC005 18/18 A2982 RMK AO2 CIG 004V009 =
2017-10-15 17:56 METAR KPVC 152156Z AUTO 21013G19KT 9SM OVC003 18/18 A2983 RMK AO2 SLP099
                 T01830178 =

Support USWX by starting your Amazon purchase here.